Time;durP1;ratioP1;P1;durP2;ratioP2;P2;SDS_P1;SDS_P2;PMS_P1;PMS_P2;Temp;Humidity;BMP_temperature;BMP_pressure;BME280_temperature;BME280_humidity;BME280_pressure;Samples;Min_cycle;Max_cycle;Signal;HPM_P1;HPM_P2
2022/01/21 00:00:59;;;;;;;;;;;2.30;99.90;;;;;;5114341;28;20014;-62
2022/01/21 00:03:26;;;;;;;;;;;2.40;99.90;;;;;;5113787;28;19954;-62
2022/01/21 00:05:51;;;;;;;;;;;2.40;99.90;;;;;;5113733;28;19973;-65
2022/01/21 00:08:17;;;;;;;;;;;2.50;99.90;;;;;;5114357;28;20377;-62
2022/01/21 00:10:42;;;;;;;;;;;2.50;99.90;;;;;;5113284;28;19923;-62
2022/01/21 00:13:18;;;;;;;;;;;2.50;99.90;;;;;;5114072;28;20346;-62
2022/01/21 00:15:43;;;;;;;;;;;2.60;99.90;;;;;;5113493;28;20288;-62
2022/01/21 00:18:11;;;;;;;;;;;2.70;99.90;;;;;;5114038;28;19924;-62
2022/01/21 00:31:33;;;;;;;;;;;2.50;99.90;;;;;;5114403;28;20492;-62
2022/01/21 00:33:59;;;;;;;;;;;2.50;99.90;;;;;;5112826;28;19924;-62
2022/01/21 00:36:24;;;;;;;;;;;2.50;99.90;;;;;;5114301;28;20427;-63
2022/01/21 00:38:50;;;;;;;;;;;2.40;99.90;;;;;;5113988;28;20426;-62
2022/01/21 00:41:21;;;;;;;;;;;2.40;99.90;;;;;;5112697;28;19924;-62
2022/01/21 00:43:46;;;;;;;;;;;2.40;99.90;;;;;;5113275;28;19928;-62
2022/01/21 00:46:13;;;;;;;;;;;2.30;99.90;;;;;;5113616;28;20022;-62
2022/01/21 00:48:38;;;;;;;;;;;2.30;99.90;;;;;;5113058;28;19924;-61
2022/01/21 00:51:04;;;;;;;;;;;2.20;99.90;;;;;;5111897;28;20273;-62
2022/01/21 00:53:30;;;;;;;;;;;2.20;99.90;;;;;;5113932;27;19992;-61
2022/01/21 00:55:55;;;;;;;;;;;2.10;99.90;;;;;;5113802;28;20022;-63
2022/01/21 00:58:21;;;;;;;;;;;2.10;99.90;;;;;;5113398;28;20284;-61
2022/01/21 01:00:47;;;;;;;;;;;2.10;99.90;;;;;;5113674;28;19931;-62
2022/01/21 01:03:14;;;;;;;;;;;2.10;99.90;;;;;;5113086;28;20292;-62
2022/01/21 01:05:40;;;;;;;;;;;2.10;99.90;;;;;;5113983;28;19924;-62
2022/01/21 01:08:05;;;;;;;;;;;2.10;99.90;;;;;;5113101;28;20367;-61
2022/01/21 01:10:43;;;;;;;;;;;2.80;99.90;;;;;;5113849;28;20391;-62
2022/01/21 01:21:21;;;;;;;;;;;2.20;99.90;;;;;;5111902;28;20534;-62
2022/01/21 01:24:01;;;;;;;;;;;2.10;99.90;;;;;;5113270;28;20006;-64
2022/01/21 01:29:12;;;;;;;;;;;2.30;99.90;;;;;;5111581;28;19924;-66
2022/01/21 01:31:37;;;;;;;;;;;2.10;99.90;;;;;;5112972;28;19931;-64
2022/01/21 01:34:04;;;;;;;;;;;2.10;99.90;;;;;;5111608;28;19931;-70
2022/01/21 01:36:30;;;;;;;;;;;2.10;99.90;;;;;;5112548;28;20014;-66
2022/01/21 01:41:45;;;;;;;;;;;2.20;99.90;;;;;;5112758;28;19930;-65
2022/01/21 01:49:39;;;;;;;;;;;2.10;99.90;;;;;;5112932;28;19978;-65
2022/01/21 01:52:09;;;;;;;;;;;2.10;99.90;;;;;;5112862;28;19924;-69
2022/01/21 01:54:37;;;;;;;;;;;2.10;99.90;;;;;;5112713;28;19923;-65
2022/01/21 01:57:03;;;;;;;;;;;2.10;99.90;;;;;;5112751;28;19924;-66
2022/01/21 01:59:28;;;;;;;;;;;2.20;99.90;;;;;;5112100;28;19928;-65
2022/01/21 02:02:02;;;;;;;;;;;2.30;99.90;;;;;;5112540;28;20277;-65
2022/01/21 02:04:28;;;;;;;;;;;2.30;99.90;;;;;;5110911;28;20012;-65
2022/01/21 02:06:54;;;;;;;;;;;2.90;99.90;;;;;;5112489;28;19989;-66
2022/01/21 02:09:20;;;;;;;;;;;2.30;99.90;;;;;;5112120;28;20039;-67
2022/01/21 02:11:46;;;;;;;;;;;2.30;99.90;;;;;;5112538;28;19934;-67
2022/01/21 02:14:16;;;;;;;;;;;2.20;99.90;;;;;;5112194;28;20011;-67
2022/01/21 02:22:08;;;;;;;;;;;2.50;99.90;;;;;;5112160;28;20491;-67
2022/01/21 02:24:48;;;;;;;;;;;2.00;99.90;;;;;;5110756;28;19969;-68
2022/01/21 02:27:14;;;;;;;;;;;2.00;99.90;;;;;;5114794;28;19923;-67
2022/01/21 02:29:52;;;;;;;;;;;1.80;99.90;;;;;;5116708;28;19924;-63
2022/01/21 02:32:18;;;;;;;;;;;1.80;99.90;;;;;;5116125;28;19924;-64
2022/01/21 02:34:45;;;;;;;;;;;1.80;99.90;;;;;;5115314;28;19930;-65
2022/01/21 02:37:12;;;;;;;;;;;1.80;99.90;;;;;;5116540;27;19928;-67
2022/01/21 02:39:38;;;;;;;;;;;1.80;99.90;;;;;;5115402;28;19923;-64
2022/01/21 02:42:04;;;;;;;;;;;1.80;99.90;;;;;;5116399;28;19930;-64
2022/01/21 02:44:30;;;;;;;;;;;1.80;99.90;;;;;;5115943;27;19928;-63
2022/01/21 02:47:01;;;;;;;;;;;1.80;99.90;;;;;;5114823;28;20354;-64
2022/01/21 02:49:27;;;;;;;;;;;1.80;99.90;;;;;;5114792;28;19924;-64
2022/01/21 02:51:54;;;;;;;;;;;1.80;99.90;;;;;;5114859;28;19931;-65
2022/01/21 02:54:20;;;;;;;;;;;1.90;99.90;;;;;;5114358;28;20006;-66
2022/01/21 02:56:46;;;;;;;;;;;1.90;99.90;;;;;;5115038;28;20011;-64
2022/01/21 02:59:11;;;;;;;;;;;1.90;99.90;;;;;;5114828;28;19931;-64
2022/01/21 03:01:38;;;;;;;;;;;1.90;99.90;;;;;;5115577;28;19928;-64
2022/01/21 03:04:05;;;;;;;;;;;1.90;99.90;;;;;;5116127;28;19928;-66
2022/01/21 03:06:31;;;;;;;;;;;2.00;99.90;;;;;;5115545;28;20384;-66
2022/01/21 03:08:58;;;;;;;;;;;2.00;99.90;;;;;;5115851;28;19949;-66
2022/01/21 03:11:25;;;;;;;;;;;2.00;99.90;;;;;;5097614;28;20369;-66
2022/01/21 03:13:50;;;;;;;;;;;2.00;99.90;;;;;;5097890;28;19924;-66
2022/01/21 03:16:16;;;;;;;;;;;2.00;99.90;;;;;;5115826;28;20068;-70
2022/01/21 03:18:42;;;;;;;;;;;2.00;99.90;;;;;;5114189;28;19963;-65
2022/01/21 03:21:10;;;;;;;;;;;2.00;99.90;;;;;;5115653;28;19924;-64
2022/01/21 03:23:37;;;;;;;;;;;2.00;99.90;;;;;;5115200;28;20007;-65
2022/01/21 03:26:02;;;;;;;;;;;2.00;99.90;;;;;;5115578;28;19923;-64
2022/01/21 03:28:28;;;;;;;;;;;2.00;99.90;;;;;;5115058;28;19924;-65
2022/01/21 03:30:56;;;;;;;;;;;2.10;99.90;;;;;;5115417;28;20452;-65
2022/01/21 03:33:23;;;;;;;;;;;2.10;99.90;;;;;;5113651;28;19931;-65
2022/01/21 03:35:50;;;;;;;;;;;2.10;99.90;;;;;;5115441;28;19930;-65
2022/01/21 03:38:17;;;;;;;;;;;2.10;99.90;;;;;;5115192;28;19988;-65
2022/01/21 03:40:43;;;;;;;;;;;2.20;99.90;;;;;;5113827;28;19923;-66
2022/01/21 03:43:10;;;;;;;;;;;2.10;99.90;;;;;;5097223;28;19924;-65
2022/01/21 03:45:35;;;;;;;;;;;2.10;99.90;;;;;;5114736;28;19924;-65
2022/01/21 03:48:01;;;;;;;;;;;2.00;99.90;;;;;;5113790;28;20344;-65
2022/01/21 03:50:32;;;;;;;;;;;2.00;99.90;;;;;;5114166;28;19935;-65
2022/01/21 03:52:59;;;;;;;;;;;2.00;99.90;;;;;;5115006;28;19938;-65
2022/01/21 03:55:25;;;;;;;;;;;2.00;99.90;;;;;;5113543;28;19923;-65
2022/01/21 03:57:51;;;;;;;;;;;1.90;99.90;;;;;;5114806;28;20475;-65
2022/01/21 04:00:19;;;;;;;;;;;1.90;99.90;;;;;;5113749;28;19923;-64
2022/01/21 04:02:45;;;;;;;;;;;1.90;99.90;;;;;;5114567;28;19930;-65
2022/01/21 04:05:11;;;;;;;;;;;1.90;99.90;;;;;;5113878;28;19931;-64
2022/01/21 04:07:36;;;;;;;;;;;1.90;99.90;;;;;;5113043;28;19924;-65
2022/01/21 04:10:03;;;;;;;;;;;1.90;99.90;;;;;;5096081;28;19985;-65
2022/01/21 04:12:28;;;;;;;;;;;2.00;99.90;;;;;;5113302;28;19927;-65
2022/01/21 04:14:56;;;;;;;;;;;2.00;99.90;;;;;;5113326;28;19923;-64
2022/01/21 04:17:23;;;;;;;;;;;2.00;99.90;;;;;;5114573;28;19931;-65
2022/01/21 04:19:48;;;;;;;;;;;2.00;99.90;;;;;;5112790;28;19923;-65
2022/01/21 04:22:14;;;;;;;;;;;1.90;99.90;;;;;;5114110;28;19931;-64
2022/01/21 04:24:40;;;;;;;;;;;1.90;99.90;;;;;;5114145;28;19930;-65
2022/01/21 04:27:06;;;;;;;;;;;1.80;99.90;;;;;;5112913;28;19972;-64
2022/01/21 04:29:31;;;;;;;;;;;1.90;99.90;;;;;;5113936;28;19924;-64
2022/01/21 04:31:57;;;;;;;;;;;1.80;99.90;;;;;;5114406;28;20382;-65
2022/01/21 04:34:22;;;;;;;;;;;1.70;99.90;;;;;;5114206;28;19931;-65
2022/01/21 04:36:48;;;;;;;;;;;1.80;99.90;;;;;;5112799;28;20055;-65
2022/01/21 04:39:20;;;;;;;;;;;1.70;99.90;;;;;;5113203;28;20010;-65
2022/01/21 04:47:18;;;;;;;;;;;1.60;99.90;;;;;;5083968;28;19924;-64
2022/01/21 04:49:44;;;;;;;;;;;1.60;99.90;;;;;;5113077;28;19942;-64
2022/01/21 04:52:10;;;;;;;;;;;1.50;99.90;;;;;;5112182;28;19924;-64
2022/01/21 04:54:36;;;;;;;;;;;1.50;99.90;;;;;;5113466;27;20378;-64
2022/01/21 04:57:02;;;;;;;;;;;1.90;99.90;;;;;;5113744;28;19969;-64
2022/01/21 04:59:28;;;;;;;;;;;1.60;99.90;;;;;;5113754;28;19923;-65
2022/01/21 05:01:54;;;;;;;;;;;1.60;99.90;;;;;;5113086;28;20407;-65
2022/01/21 05:04:20;;;;;;;;;;;1.70;99.90;;;;;;5113700;28;19924;-66
2022/01/21 05:06:47;;;;;;;;;;;1.70;99.90;;;;;;5095152;28;19967;-63
2022/01/21 05:09:16;;;;;;;;;;;1.80;99.90;;;;;;5113152;28;19927;-65
2022/01/21 05:11:42;;;;;;;;;;;1.80;99.90;;;;;;5112058;28;19924;-64
2022/01/21 05:14:21;;;;;;;;;;;1.80;99.90;;;;;;5112180;28;20011;-64
2022/01/21 05:16:49;;;;;;;;;;;1.80;99.90;;;;;;5113200;28;19984;-64
2022/01/21 05:19:16;;;;;;;;;;;1.90;99.90;;;;;;5112419;28;19924;-64
2022/01/21 05:21:47;;;;;;;;;;;1.90;99.90;;;;;;5111699;28;19931;-64
2022/01/21 05:24:13;;;;;;;;;;;1.90;99.90;;;;;;5112198;28;20292;-64
2022/01/21 05:26:40;;;;;;;;;;;1.90;99.90;;;;;;5094613;28;19931;-64
2022/01/21 05:29:07;;;;;;;;;;;1.90;99.90;;;;;;5112925;28;20389;-64
2022/01/21 05:31:33;;;;;;;;;;;1.80;99.90;;;;;;5113169;28;19928;-66
2022/01/21 05:33:59;;;;;;;;;;;1.80;99.90;;;;;;5112976;28;19969;-65
2022/01/21 05:36:26;;;;;;;;;;;1.80;99.90;;;;;;5113001;28;19923;-64
2022/01/21 05:38:55;;;;;;;;;;;1.90;99.90;;;;;;5112438;28;19974;-64
2022/01/21 05:41:24;;;;;;;;;;;1.80;99.90;;;;;;5111712;28;19930;-64
2022/01/21 05:43:58;;;;;;;;;;;1.80;99.90;;;;;;5112598;28;20340;-64
2022/01/21 05:49:09;;;;;;;;;;;1.80;99.90;;;;;;5112610;28;20425;-64
2022/01/21 05:51:34;;;;;;;;;;;1.90;99.90;;;;;;5110845;28;19931;-64
2022/01/21 05:54:00;;;;;;;;;;;1.90;99.90;;;;;;5112176;28;20448;-63
2022/01/21 05:56:26;;;;;;;;;;;2.00;99.90;;;;;;5112501;28;19923;-64
2022/01/21 05:58:52;;;;;;;;;;;2.00;99.90;;;;;;5112011;28;20057;-64
2022/01/21 06:01:18;;;;;;;;;;;2.10;99.90;;;;;;5110662;28;19967;-63
2022/01/21 06:03:44;;;;;;;;;;;2.10;99.90;;;;;;5111240;28;19923;-64
2022/01/21 06:06:10;;;;;;;;;;;2.10;99.90;;;;;;5112481;28;19923;-66
2022/01/21 06:08:39;;;;;;;;;;;2.10;99.90;;;;;;5112551;28;20022;-64
2022/01/21 06:11:04;;;;;;;;;;;2.10;99.90;;;;;;5112205;28;19924;-65
2022/01/21 06:13:30;;;;;;;;;;;2.30;99.90;;;;;;5112543;28;20383;-64
2022/01/21 06:15:56;;;;;;;;;;;2.10;99.90;;;;;;5110698;28;20490;-64
2022/01/21 06:18:22;;;;;;;;;;;2.10;99.90;;;;;;5111508;28;19923;-66
2022/01/21 06:20:48;;;;;;;;;;;2.10;99.90;;;;;;5112090;28;19924;-66
2022/01/21 06:23:13;;;;;;;;;;;2.10;99.90;;;;;;5094530;28;19944;-64
2022/01/21 06:25:39;;;;;;;;;;;2.10;99.90;;;;;;5112361;28;20369;-65
2022/01/21 06:28:05;;;;;;;;;;;2.10;99.90;;;;;;5110746;28;19924;-65
2022/01/21 06:30:30;;;;;;;;;;;2.50;99.90;;;;;;5112192;28;19924;-65
2022/01/21 06:32:56;;;;;;;;;;;2.10;99.90;;;;;;5111885;28;19928;-65
2022/01/21 06:35:22;;;;;;;;;;;2.10;99.90;;;;;;5111271;28;19977;-64
2022/01/21 06:37:47;;;;;;;;;;;2.10;99.90;;;;;;5110958;28;19955;-64
2022/01/21 06:40:15;;;;;;;;;;;2.10;99.90;;;;;;5112288;28;19928;-64
2022/01/21 06:42:41;;;;;;;;;;;2.00;99.90;;;;;;5112022;28;20277;-65
2022/01/21 06:45:07;;;;;;;;;;;2.10;99.90;;;;;;5111873;28;19924;-64
2022/01/21 06:47:33;;;;;;;;;;;2.00;99.90;;;;;;5110855;28;20382;-64
2022/01/21 06:49:59;;;;;;;;;;;2.00;99.90;;;;;;5110592;28;19930;-64
2022/01/21 06:52:26;;;;;;;;;;;2.00;99.90;;;;;;5111820;28;19928;-64
2022/01/21 06:54:51;;;;;;;;;;;2.00;99.90;;;;;;5111801;28;19924;-65
2022/01/21 06:57:17;;;;;;;;;;;2.00;99.90;;;;;;5112154;28;19968;-64
2022/01/21 06:59:42;;;;;;;;;;;2.00;99.90;;;;;;5111208;28;20396;-64
2022/01/21 07:02:08;;;;;;;;;;;1.90;99.90;;;;;;5111642;28;19924;-64
2022/01/21 07:04:34;;;;;;;;;;;1.90;99.90;;;;;;5110725;28;20396;-64
2022/01/21 07:07:00;;;;;;;;;;;1.90;99.90;;;;;;5093405;28;20315;-65
2022/01/21 07:09:26;;;;;;;;;;;1.90;99.90;;;;;;5093814;28;19924;-64
2022/01/21 07:11:52;;;;;;;;;;;1.90;99.90;;;;;;5111228;28;19931;-65
2022/01/21 07:14:18;;;;;;;;;;;1.90;99.90;;;;;;5115645;28;19930;-64
2022/01/21 07:16:43;;;;;;;;;;;1.90;99.90;;;;;;5114639;28;19927;-64
2022/01/21 07:19:09;;;;;;;;;;;1.90;99.90;;;;;;5115248;28;19927;-65
2022/01/21 07:21:34;;;;;;;;;;;1.90;99.90;;;;;;5114730;28;19931;-64
2022/01/21 07:24:00;;;;;;;;;;;2.40;99.90;;;;;;5114014;28;19928;-64
2022/01/21 07:26:26;;;;;;;;;;;1.90;99.90;;;;;;5115151;28;20006;-64
2022/01/21 07:28:52;;;;;;;;;;;1.90;99.90;;;;;;5115167;28;19930;-69
2022/01/21 07:31:17;;;;;;;;;;;2.00;99.90;;;;;;5114548;28;19923;-63
2022/01/21 07:33:43;;;;;;;;;;;2.00;99.90;;;;;;5115387;28;20029;-65
2022/01/21 07:36:08;;;;;;;;;;;1.90;99.90;;;;;;5114844;28;19993;-65
2022/01/21 07:38:34;;;;;;;;;;;2.00;99.90;;;;;;5096907;28;20364;-65
2022/01/21 07:40:59;;;;;;;;;;;2.00;99.90;;;;;;5113636;28;19969;-65
2022/01/21 07:43:25;;;;;;;;;;;2.00;99.90;;;;;;5115181;27;19923;-64
2022/01/21 07:45:51;;;;;;;;;;;2.10;99.90;;;;;;5115024;28;19931;-67
2022/01/21 07:48:16;;;;;;;;;;;2.30;99.90;;;;;;5113149;28;20406;-65
2022/01/21 07:50:42;;;;;;;;;;;2.10;99.90;;;;;;5113788;28;19924;-66
2022/01/21 07:53:08;;;;;;;;;;;2.10;99.90;;;;;;5114494;28;20365;-64
2022/01/21 07:55:33;;;;;;;;;;;2.10;99.90;;;;;;5114936;28;19928;-64
2022/01/21 07:58:00;;;;;;;;;;;2.10;99.90;;;;;;5096519;28;19923;-65
2022/01/21 08:00:26;;;;;;;;;;;2.10;99.90;;;;;;5096896;28;19924;-65
2022/01/21 08:02:51;;;;;;;;;;;2.30;99.90;;;;;;5114600;28;19924;-65
2022/01/21 08:05:17;;;;;;;;;;;2.50;99.90;;;;;;5114207;28;19924;-64
2022/01/21 08:07:42;;;;;;;;;;;2.30;99.90;;;;;;5095914;28;19932;-66
2022/01/21 08:10:08;;;;;;;;;;;2.30;99.90;;;;;;5113736;28;19927;-65
2022/01/21 08:12:34;;;;;;;;;;;2.40;99.90;;;;;;5114030;28;19923;-67
2022/01/21 08:15:00;;;;;;;;;;;2.40;99.90;;;;;;5113884;28;19923;-67
2022/01/21 08:17:29;;;;;;;;;;;2.40;99.90;;;;;;5113113;28;19924;-65
2022/01/21 08:19:56;;;;;;;;;;;2.40;99.90;;;;;;5113820;28;19924;-67
2022/01/21 08:22:22;;;;;;;;;;;2.40;99.90;;;;;;5112488;28;19931;-65
2022/01/21 08:24:48;;;;;;;;;;;2.40;99.90;;;;;;5112917;28;20358;-67
2022/01/21 08:27:14;;;;;;;;;;;2.40;99.90;;;;;;5112102;28;19924;-65
2022/01/21 08:29:40;;;;;;;;;;;2.40;99.90;;;;;;5113585;28;20573;-65
2022/01/21 08:32:07;;;;;;;;;;;2.50;99.90;;;;;;5112289;28;20365;-66
2022/01/21 08:34:34;;;;;;;;;;;2.50;99.90;;;;;;5113809;27;19928;-65
2022/01/21 08:37:01;;;;;;;;;;;2.60;99.90;;;;;;5113889;28;20299;-70
2022/01/21 08:39:26;;;;;;;;;;;2.60;99.90;;;;;;5114049;28;19923;-66
2022/01/21 08:41:52;;;;;;;;;;;2.80;99.90;;;;;;5114054;28;19977;-65
2022/01/21 08:44:17;;;;;;;;;;;2.80;99.90;;;;;;5111993;28;20381;-65
2022/01/21 08:46:43;;;;;;;;;;;3.00;99.90;;;;;;5095823;28;19990;-65
2022/01/21 08:49:09;;;;;;;;;;;3.10;99.90;;;;;;5113524;28;19923;-66
2022/01/21 08:51:47;;;;;;;;;;;3.20;99.90;;;;;;5113697;28;19924;-65
2022/01/21 08:54:14;;;;;;;;;;;3.30;99.90;;;;;;5112492;28;19940;-66
2022/01/21 08:56:40;;;;;;;;;;;3.40;99.90;;;;;;5113656;28;20380;-67
2022/01/21 08:59:05;;;;;;;;;;;3.40;99.90;;;;;;5113294;28;19930;-67
2022/01/21 09:01:31;;;;;;;;;;;3.40;99.90;;;;;;5112191;28;20269;-66
2022/01/21 09:03:56;;;;;;;;;;;3.40;99.90;;;;;;5113443;28;19923;-65
2022/01/21 09:06:27;;;;;;;;;;;3.40;99.90;;;;;;5111834;28;20529;-65
2022/01/21 09:08:53;;;;;;;;;;;3.40;99.90;;;;;;5112341;28;19971;-66
2022/01/21 09:11:18;;;;;;;;;;;3.50;99.90;;;;;;5111477;28;19974;-65
2022/01/21 09:13:44;;;;;;;;;;;3.50;99.90;;;;;;5112040;28;20377;-66
2022/01/21 09:16:10;;;;;;;;;;;3.50;99.90;;;;;;5111608;28;19924;-64
2022/01/21 09:18:54;;;;;;;;;;;3.50;99.90;;;;;;5113103;28;20014;-68
2022/01/21 09:21:21;;;;;;;;;;;3.50;99.90;;;;;;5112629;28;20442;-66
2022/01/21 09:23:48;;;;;;;;;;;3.60;99.90;;;;;;5113213;28;19924;-65
2022/01/21 09:26:15;;;;;;;;;;;3.60;99.90;;;;;;5111380;28;19931;-65
2022/01/21 09:28:41;;;;;;;;;;;3.70;99.90;;;;;;5113009;28;19966;-66
2022/01/21 09:31:07;;;;;;;;;;;3.70;99.90;;;;;;5109754;28;19931;-70
2022/01/21 09:33:32;;;;;;;;;;;3.70;99.90;;;;;;5111371;28;19949;-66
2022/01/21 09:35:58;;;;;;;;;;;3.70;99.90;;;;;;5112797;28;20052;-66
2022/01/21 09:38:24;;;;;;;;;;;3.70;99.90;;;;;;5111191;28;19975;-66
2022/01/21 09:40:50;;;;;;;;;;;3.80;99.90;;;;;;5112677;28;20019;-66
2022/01/21 09:43:17;;;;;;;;;;;3.80;99.90;;;;;;5112323;28;19924;-66
2022/01/21 09:45:46;;;;;;;;;;;3.90;99.90;;;;;;5112727;28;19946;-67
2022/01/21 09:48:13;;;;;;;;;;;3.90;99.90;;;;;;5110942;28;19923;-68
2022/01/21 09:50:40;;;;;;;;;;;4.10;99.90;;;;;;5112406;28;19974;-66
2022/01/21 09:53:06;;;;;;;;;;;4.20;99.90;;;;;;5112622;28;20404;-67
2022/01/21 09:55:32;;;;;;;;;;;4.20;99.90;;;;;;5112414;28;20018;-67
2022/01/21 09:57:58;;;;;;;;;;;4.20;99.90;;;;;;5111419;28;19975;-68
2022/01/21 10:00:25;;;;;;;;;;;4.20;99.90;;;;;;5110925;28;20360;-67
2022/01/21 10:02:51;;;;;;;;;;;4.30;99.90;;;;;;5111507;28;19923;-66
2022/01/21 10:05:17;;;;;;;;;;;4.20;99.90;;;;;;5110441;28;19924;-66
2022/01/21 10:07:47;;;;;;;;;;;4.30;99.90;;;;;;5076920;28;19927;-66
2022/01/21 10:10:13;;;;;;;;;;;4.20;99.90;;;;;;5110909;28;19924;-66
2022/01/21 10:12:39;;;;;;;;;;;4.20;99.90;;;;;;5112194;28;19967;-66
2022/01/21 10:15:07;;;;;;;;;;;4.30;99.90;;;;;;5111363;28;19973;-66
2022/01/21 10:17:32;;;;;;;;;;;4.30;99.90;;;;;;5110546;28;20377;-66
2022/01/21 10:20:11;;;;;;;;;;;4.40;99.90;;;;;;5112220;28;19944;-67
2022/01/21 10:22:36;;;;;;;;;;;4.50;99.90;;;;;;5111132;28;20060;-67
2022/01/21 10:25:03;;;;;;;;;;;4.70;99.90;;;;;;5110586;28;20014;-66
2022/01/21 10:27:30;;;;;;;;;;;4.80;99.90;;;;;;5111989;28;20403;-66
2022/01/21 10:29:56;;;;;;;;;;;4.80;99.90;;;;;;5112312;28;19930;-66
2022/01/21 10:32:51;;;;;;;;;;;5.00;99.90;;;;;;5112068;28;19928;-66
2022/01/21 10:35:21;;;;;;;;;;;5.00;99.90;;;;;;5093823;28;19928;-66
2022/01/21 10:37:47;;;;;;;;;;;5.10;99.90;;;;;;5112214;28;19924;-66
2022/01/21 10:40:15;;;;;;;;;;;5.10;99.90;;;;;;5111519;28;20000;-68
2022/01/21 10:42:40;;;;;;;;;;;5.20;99.90;;;;;;5111603;28;19930;-67
2022/01/21 10:45:07;;;;;;;;;;;5.20;99.90;;;;;;5110902;28;19927;-69
2022/01/21 10:47:34;;;;;;;;;;;5.20;99.90;;;;;;5113929;28;20129;-66
2022/01/21 10:50:13;;;;;;;;;;;5.20;99.90;;;;;;5115169;28;20338;-67
2022/01/21 10:52:42;;;;;;;;;;;5.20;99.90;;;;;;5114715;28;19924;-67
2022/01/21 10:55:38;;;;;;;;;;;5.30;99.90;;;;;;5114999;28;19973;-64
2022/01/21 10:58:14;;;;;;;;;;;5.30;99.90;;;;;;5097941;28;19994;-65
2022/01/21 11:00:58;;;;;;;;;;;5.40;99.90;;;;;;5114927;28;20029;-65
2022/01/21 11:03:24;;;;;;;;;;;5.50;99.90;;;;;;5115745;28;19931;-65
2022/01/21 11:05:54;;;;;;;;;;;5.60;99.90;;;;;;5116040;28;19923;-65
2022/01/21 11:08:23;;;;;;;;;;;5.60;99.90;;;;;;5114150;28;19931;-65
2022/01/21 11:10:50;;;;;;;;;;;5.70;99.90;;;;;;5115929;28;19969;-65
2022/01/21 11:13:18;;;;;;;;;;;5.80;99.90;;;;;;5114707;28;19923;-66
2022/01/21 11:15:48;;;;;;;;;;;5.80;99.90;;;;;;5114996;28;19957;-66
2022/01/21 11:18:16;;;;;;;;;;;5.90;99.90;;;;;;5114613;28;20353;-66
2022/01/21 11:20:45;;;;;;;;;;;6.10;99.90;;;;;;5114999;28;20369;-64
2022/01/21 11:23:11;;;;;;;;;;;6.20;99.90;;;;;;5114858;27;19924;-65
2022/01/21 11:25:50;;;;;;;;;;;6.20;99.90;;;;;;5114169;27;19950;-66
2022/01/21 11:28:16;;;;;;;;;;;6.20;99.90;;;;;;5112431;28;20208;-65
2022/01/21 11:30:42;;;;;;;;;;;6.30;99.90;;;;;;5113873;28;19972;-65
2022/01/21 11:33:07;;;;;;;;;;;6.20;99.90;;;;;;5113220;28;19919;-67
2022/01/21 11:35:33;;;;;;;;;;;6.30;99.90;;;;;;5112955;28;19976;-67
2022/01/21 11:38:01;;;;;;;;;;;6.40;99.90;;;;;;5112835;28;19931;-64
2022/01/21 11:40:27;;;;;;;;;;;6.50;99.90;;;;;;5112829;28;20304;-67
2022/01/21 11:42:53;;;;;;;;;;;6.50;99.90;;;;;;5113758;28;19924;-65
2022/01/21 11:50:38;;;;;;;;;;;6.50;99.90;;;;;;5113696;28;19930;-68
2022/01/21 11:53:05;;;;;;;;;;;6.60;99.90;;;;;;5113998;28;19932;-67
2022/01/21 11:55:39;;;;;;;;;;;6.60;99.90;;;;;;5113343;28;20384;-65
2022/01/21 11:58:18;;;;;;;;;;;6.50;99.90;;;;;;5113050;28;19976;-65
2022/01/21 12:00:45;;;;;;;;;;;6.60;99.90;;;;;;5111975;28;20030;-68
2022/01/21 12:03:10;;;;;;;;;;;6.50;99.90;;;;;;5112619;28;19919;-66
2022/01/21 12:05:36;;;;;;;;;;;6.40;99.90;;;;;;5113343;28;19992;-66
2022/01/21 12:08:05;;;;;;;;;;;6.50;99.90;;;;;;5095343;28;19924;-65
2022/01/21 12:10:33;;;;;;;;;;;6.50;99.90;;;;;;5113196;28;19925;-65
2022/01/21 12:13:04;;;;;;;;;;;6.50;99.90;;;;;;5113879;28;19934;-65
2022/01/21 12:20:50;;;;;;;;;;;6.50;99.90;;;;;;5114033;28;20292;-67
2022/01/21 12:23:16;;;;;;;;;;;6.60;99.90;;;;;;5112913;28;19968;-65
2022/01/21 12:26:00;;;;;;;;;;;6.50;99.90;;;;;;5113534;28;19923;-65
2022/01/21 12:28:26;;;;;;;;;;;6.50;99.90;;;;;;5113413;28;20027;-65
2022/01/21 12:30:52;;;;;;;;;;;6.50;99.90;;;;;;5112277;28;19981;-64
2022/01/21 12:33:18;;;;;;;;;;;6.50;99.90;;;;;;5113475;28;19919;-67
2022/01/21 12:35:45;;;;;;;;;;;6.50;99.90;;;;;;5113152;28;19920;-65
2022/01/21 12:41:04;;;;;;;;;;;6.50;99.90;;;;;;5113834;28;19946;-65
2022/01/21 12:43:36;;;;;;;;;;;6.50;99.90;;;;;;5113142;28;20289;-65
2022/01/21 12:46:06;;;;;;;;;;;6.50;99.90;;;;;;5113440;28;19930;-65
2022/01/21 12:48:34;;;;;;;;;;;6.50;99.90;;;;;;5110910;28;20404;-65
2022/01/21 12:51:13;;;;;;;;;;;6.50;99.90;;;;;;5113134;28;19949;-64
2022/01/21 12:55:54;;;;;;;;;;;6.50;99.90;;;;;;5094386;28;19998;-64
2022/01/21 12:56:25;;;;;;;;;;;6.50;99.90;;;;;;5111442;28;19928;-63
2022/01/21 12:58:50;;;;;;;;;;;6.50;99.90;;;;;;5113420;28;20340;-65
2022/01/21 13:01:16;;;;;;;;;;;6.50;99.90;;;;;;5113284;28;20007;-65
2022/01/21 13:03:54;;;;;;;;;;;6.60;99.90;;;;;;5112937;28;20361;-65
2022/01/21 13:06:19;;;;;;;;;;;6.60;99.90;;;;;;5111838;28;19924;-65
2022/01/21 13:09:02;;;;;;;;;;;6.60;99.90;;;;;;5113144;28;20266;-63
2022/01/21 13:11:29;;;;;;;;;;;6.70;99.90;;;;;;5112911;28;19924;-64
2022/01/21 13:17:02;;;;;;;;;;;6.60;99.90;;;;;;5113588;28;19923;-63
2022/01/21 13:19:28;;;;;;;;;;;6.60;99.90;;;;;;5112752;28;20018;-64
2022/01/21 13:21:54;;;;;;;;;;;6.60;99.90;;;;;;5112430;28;19931;-64
2022/01/21 13:24:30;;;;;;;;;;;6.70;99.90;;;;;;5113321;28;19924;-64
2022/01/21 13:26:57;;;;;;;;;;;6.60;99.90;;;;;;5113159;28;19924;-64
2022/01/21 13:29:28;;;;;;;;;;;6.60;99.90;;;;;;5113225;28;19983;-64
2022/01/21 13:31:55;;;;;;;;;;;6.50;99.90;;;;;;5113252;28;19923;-64
2022/01/21 13:34:22;;;;;;;;;;;6.50;99.90;;;;;;5112889;28;19931;-63
2022/01/21 13:36:52;;;;;;;;;;;6.50;99.90;;;;;;5112758;28;20319;-63
2022/01/21 13:39:19;;;;;;;;;;;6.40;99.90;;;;;;5112912;28;19924;-64
2022/01/21 13:42:11;;;;;;;;;;;6.30;99.90;;;;;;5112569;28;19934;-64
2022/01/21 13:44:41;;;;;;;;;;;6.30;99.90;;;;;;5099307;28;19923;-64
2022/01/21 13:47:26;;;;;;;;;;;6.30;99.90;;;;;;5111717;28;19937;-62
2022/01/21 13:49:57;;;;;;;;;;;6.30;99.90;;;;;;5111982;28;20399;-63
2022/01/21 13:52:42;;;;;;;;;;;6.40;99.90;;;;;;5112285;28;19927;-63
2022/01/21 13:55:09;;;;;;;;;;;6.40;99.90;;;;;;5112192;28;19935;-63
2022/01/21 13:57:35;;;;;;;;;;;6.50;99.90;;;;;;5112140;28;20065;-64
2022/01/21 14:00:00;;;;;;;;;;;6.50;99.90;;;;;;5112746;28;20018;-63
2022/01/21 14:02:26;;;;;;;;;;;6.50;99.90;;;;;;5112505;28;20015;-63
2022/01/21 14:04:57;;;;;;;;;;;6.50;99.90;;;;;;5112076;28;19928;-65
2022/01/21 14:07:30;;;;;;;;;;;6.50;99.90;;;;;;5112282;28;19988;-64
2022/01/21 14:09:57;;;;;;;;;;;6.50;99.90;;;;;;5111893;28;20361;-64
2022/01/21 14:12:22;;;;;;;;;;;6.50;99.90;;;;;;5112451;28;19930;-65
2022/01/21 14:14:52;;;;;;;;;;;6.50;99.90;;;;;;5112086;28;20365;-65
2022/01/21 14:17:24;;;;;;;;;;;6.60;99.90;;;;;;5111705;28;19928;-68
2022/01/21 14:19:51;;;;;;;;;;;6.50;99.90;;;;;;5112055;28;20342;-64
2022/01/21 14:22:19;;;;;;;;;;;6.60;99.90;;;;;;5111461;28;19924;-64
2022/01/21 14:24:46;;;;;;;;;;;6.60;99.90;;;;;;5110523;28;19931;-66
2022/01/21 14:27:17;;;;;;;;;;;6.70;99.90;;;;;;5112423;28;19971;-65
2022/01/21 14:29:48;;;;;;;;;;;6.70;99.90;;;;;;5111972;28;19928;-66
2022/01/21 14:32:15;;;;;;;;;;;6.80;99.90;;;;;;5112266;28;20053;-69
2022/01/21 14:34:40;;;;;;;;;;;6.70;99.90;;;;;;5110988;28;19930;-71
2022/01/21 14:37:09;;;;;;;;;;;6.80;99.90;;;;;;5110330;28;20373;-67
2022/01/21 14:39:35;;;;;;;;;;;6.70;99.90;;;;;;5094202;28;20065;-66
2022/01/21 14:42:01;;;;;;;;;;;6.70;99.90;;;;;;5112125;28;19923;-67
2022/01/21 14:44:40;;;;;;;;;;;6.70;99.90;;;;;;5112353;28;19924;-66
2022/01/21 14:47:07;;;;;;;;;;;6.70;99.90;;;;;;5110845;28;19924;-66
2022/01/21 14:49:33;;;;;;;;;;;6.70;99.90;;;;;;5112162;28;19932;-67
2022/01/21 14:52:42;;;;;;;;;;;6.60;99.90;;;;;;5111442;28;19927;-66
2022/01/21 14:54:48;;;;;;;;;;;6.60;99.90;;;;;;5105778;28;19968;-67
2022/01/21 14:57:14;;;;;;;;;;;6.60;99.90;;;;;;5110492;28;20363;-67
2022/01/21 15:00:00;;;;;;;;;;;6.70;99.90;;;;;;5111637;28;19931;-67
2022/01/21 15:02:27;;;;;;;;;;;6.60;99.90;;;;;;5111741;28;19924;-65
2022/01/21 15:04:53;;;;;;;;;;;6.60;99.90;;;;;;5111608;28;19928;-66
2022/01/21 15:07:24;;;;;;;;;;;6.60;99.90;;;;;;5110716;28;19924;-66
2022/01/21 15:09:52;;;;;;;;;;;6.60;99.90;;;;;;5111504;28;20072;-67
2022/01/21 15:15:11;;;;;;;;;;;6.60;99.90;;;;;;5111779;28;20016;-67
2022/01/21 15:17:36;;;;;;;;;;;6.60;99.90;;;;;;5111652;28;20335;-66
2022/01/21 15:20:02;;;;;;;;;;;6.50;99.90;;;;;;5110419;28;20152;-66
2022/01/21 15:22:28;;;;;;;;;;;6.50;99.90;;;;;;5111695;28;20026;-65
2022/01/21 15:24:55;;;;;;;;;;;6.50;99.90;;;;;;5111537;28;20359;-65
2022/01/21 15:27:22;;;;;;;;;;;6.50;99.90;;;;;;5111613;28;19974;-66
2022/01/21 15:29:49;;;;;;;;;;;6.60;99.90;;;;;;5110329;28;20042;-65
2022/01/21 15:32:15;;;;;;;;;;;6.50;99.90;;;;;;5111610;28;19931;-67
2022/01/21 15:34:41;;;;;;;;;;;6.50;99.90;;;;;;5114971;28;20014;-66
2022/01/21 15:37:09;;;;;;;;;;;6.40;99.90;;;;;;5115004;28;19998;-66